Lionhead Wind

Lionhead weather stationLocated on Lionhead Ridge near West Yellowstone. Use the nearest SNOTEL station for snow depth data: Madison Plateau. The data on this page is also available to view at dataGarrison.com.

Elevation
9420ft
Jump to table bottom
Date Time Temperature
deg F
RH, % Wind Speed Wind Gust Wind Direction Pressure Light
12/10/22 01:00 5.7 94 20 32 SW - 208 711.520 0
12/10/22 00:00 5.5 94 21 30 SW - 209 712.040 0
12/09/22 23:00 5.3 94 26 35 SW - 204 711.700 0
12/09/22 22:00 5.6 94 24 34 S - 191 711.700 0
12/09/22 21:00 6.7 94 15 25 S - 188 712.080 0
12/09/22 20:00 7.5 95 10 14 S - 201 712.140 0
12/09/22 19:00 7.6 95 8 14 S - 201 711.760 0
12/09/22 18:00 8.4 95 12 18 SW - 216 711.360 0
12/09/22 17:00 9.3 95 14 21 SW - 215 711.000 0
12/09/22 16:00 9.9 95 16 21 SW - 212 709.960 0
12/09/22 15:00 10.9 95 21 34 SW - 225 709.040 0
12/09/22 14:00 11.0 95 22 29 SW - 226 708.200 0
12/09/22 13:00 11.6 96 20 29 SW - 223 708.160 0
12/09/22 12:00 11.7 96 23 33 SW - 230 708.520 0
12/09/22 11:00 11.1 95 22 35 SW - 220 708.240 0
12/09/22 10:00 10.0 95 17 24 SW - 206 708.960 0
12/09/22 09:00 9.8 95 23 39 SW - 208 708.660 0
12/09/22 08:00 9.9 95 30 46 SW - 205 708.440 0
12/09/22 07:00 9.6 95 27 41 SW - 206 708.580 0
12/09/22 06:00 9.8 95 27 41 SW - 216 709.200 0
12/09/22 05:00 9.5 95 25 39 SW - 216 709.740 0
12/09/22 04:00 9.6 95 28 41 SW - 213 710.200 0
12/09/22 03:00 7.6 95 23 36 SW - 205 710.740 0
12/09/22 02:00 8.0 95 19 37 SW - 206 711.480 0
12/09/22 01:00 7.1 94 17 26 SW - 206 712.640 0
12/09/22 00:00 6.8 94 18 26 S - 202 713.400 0
12/08/22 23:00 6.6 94 14 22 S - 199 714.100 0
12/08/22 22:00 6.6 94 18 25 SW - 205 714.420 0
12/08/22 21:00 7.1 94 22 31 SW - 209 714.780 0
12/08/22 20:00 7.4 95 24 35 SW - 206 715.080 0
12/08/22 19:00 7.8 95 22 31 SW - 205 715.460 0
12/08/22 18:00 7.3 95 20 27 SW - 213 715.740 0
12/08/22 17:00 6.9 94 17 23 SW - 213 716.220 0
12/08/22 16:00 7.8 95 15 22 SW - 220 716.380 0
12/08/22 15:00 8.5 95 16 22 SW - 226 716.280 0
12/08/22 14:00 9.6 95 17 21 SW - 229 716.380 0
12/08/22 13:00 8.8 95 18 24 SW - 222 716.600 0
12/08/22 12:00 7.7 95 17 24 SW - 223 716.680 0
12/08/22 11:00 7.8 94 17 21 SW - 222 717.020 0
12/08/22 10:00 6.0 94 18 26 SW - 212 716.860 0
12/08/22 09:00 5.7 94 19 25 SW - 218 716.140 0
12/08/22 08:00 4.7 94 17 26 SW - 219 715.820 0
12/08/22 07:00 4.7 94 14 19 SW - 226 715.900 0
12/08/22 06:00 6.7 94 14 19 SW - 226 715.240 0
12/08/22 05:00 7.7 95 13 20 SW - 219 715.340 0
12/08/22 04:00 8.0 95 11 15 SW - 230 715.280 0
12/08/22 03:00 8.3 95 11 14 SW - 234 715.260 0
12/08/22 02:00 8.8 95 10 13 SW - 229 715.020 0
12/08/22 01:00 8.5 95 7 10 SW - 206 714.960 0
12/08/22 00:00 8.8 95 6 8 S - 197 715.000 0